sensor_id;sensor_type;location;lat;lon;timestamp;pressure;altitude;pressure_sealevel;temperature;humidity
66396;BME280;53207;51.378;-1.342;2023-03-13T00:01:57;98197.52;;;18.13;38.69
66396;BME280;53207;51.378;-1.342;2023-03-13T00:04:25;98200.41;;;18.14;38.69
66396;BME280;53207;51.378;-1.342;2023-03-13T00:06:52;98217.63;;;18.14;38.58
66396;BME280;53207;51.378;-1.342;2023-03-13T00:09:19;98213.15;;;17.87;38.59
66396;BME280;53207;51.378;-1.342;2023-03-13T00:11:46;98205.53;;;18.11;38.56
66396;BME280;53207;51.378;-1.342;2023-03-13T00:14:14;98199.96;;;17.67;38.50
66396;BME280;53207;51.378;-1.342;2023-03-13T00:16:41;98184.72;;;18.14;38.44
66396;BME280;53207;51.378;-1.342;2023-03-13T00:19:09;98194.81;;;18.09;38.52
66396;BME280;53207;51.378;-1.342;2023-03-13T00:21:36;98185.77;;;18.12;38.42
66396;BME280;53207;51.378;-1.342;2023-03-13T00:24:04;98186.75;;;17.84;38.46
66396;BME280;53207;51.378;-1.342;2023-03-13T00:26:31;98167.13;;;18.11;38.36
66396;BME280;53207;51.378;-1.342;2023-03-13T00:28:59;98181.30;;;17.84;38.38
66396;BME280;53207;51.378;-1.342;2023-03-13T00:31:28;98179.97;;;18.08;38.32
66396;BME280;53207;51.378;-1.342;2023-03-13T00:33:58;98160.30;;;17.87;38.27
66396;BME280;53207;51.378;-1.342;2023-03-13T00:36:27;98155.90;;;18.05;38.28
66396;BME280;53207;51.378;-1.342;2023-03-13T00:38:56;98146.35;;;18.01;38.36
66396;BME280;53207;51.378;-1.342;2023-03-13T00:41:25;98141.60;;;17.87;38.21
66396;BME280;53207;51.378;-1.342;2023-03-13T00:43:53;98123.38;;;17.52;38.28
66396;BME280;53207;51.378;-1.342;2023-03-13T00:46:22;98127.77;;;17.78;38.27
66396;BME280;53207;51.378;-1.342;2023-03-13T00:48:50;98125.99;;;18.11;38.14
66396;BME280;53207;51.378;-1.342;2023-03-13T00:51:19;98139.74;;;18.10;38.15
66396;BME280;53207;51.378;-1.342;2023-03-13T00:53:47;98117.52;;;18.15;37.98
66396;BME280;53207;51.378;-1.342;2023-03-13T00:56:15;98129.12;;;18.10;38.01
66396;BME280;53207;51.378;-1.342;2023-03-13T00:58:44;98136.53;;;17.93;37.92
66396;BME280;53207;51.378;-1.342;2023-03-13T01:01:16;98146.79;;;17.94;37.89
66396;BME280;53207;51.378;-1.342;2023-03-13T01:03:46;98126.51;;;17.76;37.75
66396;BME280;53207;51.378;-1.342;2023-03-13T01:06:16;98133.57;;;17.74;37.76
66396;BME280;53207;51.378;-1.342;2023-03-13T01:08:43;98132.78;;;17.97;37.73
66396;BME280;53207;51.378;-1.342;2023-03-13T01:11:12;98127.16;;;18.08;37.61
66396;BME280;53207;51.378;-1.342;2023-03-13T01:13:40;98124.50;;;17.95;37.79
66396;BME280;53207;51.378;-1.342;2023-03-13T01:16:09;98124.31;;;17.63;37.80
66396;BME280;53207;51.378;-1.342;2023-03-13T01:18:38;98109.76;;;17.89;37.81
66396;BME280;53207;51.378;-1.342;2023-03-13T01:21:07;98106.59;;;18.18;37.74
66396;BME280;53207;51.378;-1.342;2023-03-13T01:23:35;98094.56;;;18.16;37.70
66396;BME280;53207;51.378;-1.342;2023-03-13T01:26:04;98102.52;;;18.19;37.66
66396;BME280;53207;51.378;-1.342;2023-03-13T01:28:33;98101.32;;;17.94;37.64
66396;BME280;53207;51.378;-1.342;2023-03-13T01:31:00;98108.19;;;17.80;37.82
66396;BME280;53207;51.378;-1.342;2023-03-13T01:33:36;98090.97;;;18.12;37.67
66396;BME280;53207;51.378;-1.342;2023-03-13T01:36:04;98100.49;;;17.70;37.58
66396;BME280;53207;51.378;-1.342;2023-03-13T01:38:31;98075.95;;;18.12;37.64
66396;BME280;53207;51.378;-1.342;2023-03-13T01:40:59;98070.81;;;17.62;37.66
66396;BME280;53207;51.378;-1.342;2023-03-13T01:43:27;98067.46;;;17.83;37.70
66396;BME280;53207;51.378;-1.342;2023-03-13T01:46:02;98070.15;;;17.64;37.58
66396;BME280;53207;51.378;-1.342;2023-03-13T01:48:39;98064.74;;;17.93;37.53
66396;BME280;53207;51.378;-1.342;2023-03-13T01:51:10;98055.53;;;18.12;37.55
66396;BME280;53207;51.378;-1.342;2023-03-13T01:53:42;98049.72;;;17.92;37.51
66396;BME280;53207;51.378;-1.342;2023-03-13T01:56:15;98050.77;;;17.92;37.52
66396;BME280;53207;51.378;-1.342;2023-03-13T01:58:44;98037.73;;;17.62;37.50
66396;BME280;53207;51.378;-1.342;2023-03-13T02:01:13;98032.34;;;17.63;37.51
66396;BME280;53207;51.378;-1.342;2023-03-13T02:03:41;98035.93;;;17.92;37.46
66396;BME280;53207;51.378;-1.342;2023-03-13T02:06:09;98039.23;;;17.85;37.50
66396;BME280;53207;51.378;-1.342;2023-03-13T02:08:41;98032.09;;;18.11;37.45
66396;BME280;53207;51.378;-1.342;2023-03-13T02:11:15;98029.99;;;17.69;37.34
66396;BME280;53207;51.378;-1.342;2023-03-13T02:13:46;98035.40;;;17.92;37.39
66396;BME280;53207;51.378;-1.342;2023-03-13T02:16:15;98039.75;;;17.66;37.38
66396;BME280;53207;51.378;-1.342;2023-03-13T02:18:43;98036.37;;;17.85;37.43
66396;BME280;53207;51.378;-1.342;2023-03-13T02:21:18;98021.27;;;17.92;37.34
66396;BME280;53207;51.378;-1.342;2023-03-13T02:23:52;98030.26;;;17.55;37.51
66396;BME280;53207;51.378;-1.342;2023-03-13T02:26:23;98031.45;;;17.62;37.37
66396;BME280;53207;51.378;-1.342;2023-03-13T02:28:50;98033.88;;;17.62;37.34
66396;BME280;53207;51.378;-1.342;2023-03-13T02:31:17;98034.03;;;17.92;37.32
66396;BME280;53207;51.378;-1.342;2023-03-13T02:33:45;98028.57;;;17.58;37.44
66396;BME280;53207;51.378;-1.342;2023-03-13T02:36:14;98028.19;;;17.54;37.44
66396;BME280;53207;51.378;-1.342;2023-03-13T02:38:47;98023.65;;;17.60;37.35
66396;BME280;53207;51.378;-1.342;2023-03-13T02:41:17;98022.74;;;17.89;37.28
66396;BME280;53207;51.378;-1.342;2023-03-13T02:43:46;98022.92;;;18.04;37.36
66396;BME280;53207;51.378;-1.342;2023-03-13T02:46:15;98026.01;;;17.57;37.34
66396;BME280;53207;51.378;-1.342;2023-03-13T02:48:45;98017.90;;;17.77;37.42
66396;BME280;53207;51.378;-1.342;2023-03-13T02:51:17;98029.37;;;17.58;37.31
66396;BME280;53207;51.378;-1.342;2023-03-13T02:53:47;98023.50;;;17.81;37.34
66396;BME280;53207;51.378;-1.342;2023-03-13T02:56:17;98028.16;;;17.56;37.28
66396;BME280;53207;51.378;-1.342;2023-03-13T02:58:46;98022.93;;;17.84;37.29
66396;BME280;53207;51.378;-1.342;2023-03-13T03:01:13;98018.50;;;17.73;37.39
66396;BME280;53207;51.378;-1.342;2023-03-13T03:03:40;98012.33;;;17.50;37.35
66396;BME280;53207;51.378;-1.342;2023-03-13T03:06:08;98014.63;;;17.54;37.30
66396;BME280;53207;51.378;-1.342;2023-03-13T03:08:35;98012.27;;;17.54;37.28
66396;BME280;53207;51.378;-1.342;2023-03-13T03:11:04;98009.39;;;17.82;37.26
66396;BME280;53207;51.378;-1.342;2023-03-13T03:13:31;98008.55;;;17.99;37.28
66396;BME280;53207;51.378;-1.342;2023-03-13T03:16:00;98004.26;;;17.94;37.37
66396;BME280;53207;51.378;-1.342;2023-03-13T03:18:30;97995.69;;;17.80;37.25
66396;BME280;53207;51.378;-1.342;2023-03-13T03:20:58;97992.28;;;18.00;37.34
66396;BME280;53207;51.378;-1.342;2023-03-13T03:23:25;97995.97;;;17.69;37.41
66396;BME280;53207;51.378;-1.342;2023-03-13T03:25:52;97991.23;;;17.49;37.30
66396;BME280;53207;51.378;-1.342;2023-03-13T03:28:20;97992.85;;;17.78;37.29
66396;BME280;53207;51.378;-1.342;2023-03-13T03:30:47;97992.16;;;17.73;37.33
66396;BME280;53207;51.378;-1.342;2023-03-13T03:33:14;98004.49;;;17.74;37.30
66396;BME280;53207;51.378;-1.342;2023-03-13T03:35:42;98005.93;;;17.97;37.32
66396;BME280;53207;51.378;-1.342;2023-03-13T03:38:09;97997.82;;;17.71;37.34
66396;BME280;53207;51.378;-1.342;2023-03-13T03:40:36;97991.93;;;17.89;37.41
66396;BME280;53207;51.378;-1.342;2023-03-13T03:43:04;97999.39;;;17.93;37.33
66396;BME280;53207;51.378;-1.342;2023-03-13T03:45:31;97994.66;;;17.99;37.26
66396;BME280;53207;51.378;-1.342;2023-03-13T03:47:58;97984.40;;;17.87;37.39
66396;BME280;53207;51.378;-1.342;2023-03-13T03:50:26;97974.79;;;17.97;37.28
66396;BME280;53207;51.378;-1.342;2023-03-13T03:52:53;97965.30;;;17.71;37.28
66396;BME280;53207;51.378;-1.342;2023-03-13T03:55:21;97967.30;;;17.99;37.21
66396;BME280;53207;51.378;-1.342;2023-03-13T03:57:48;97963.40;;;17.93;37.27
66396;BME280;53207;51.378;-1.342;2023-03-13T04:00:15;97972.02;;;17.91;37.30
66396;BME280;53207;51.378;-1.342;2023-03-13T04:02:43;97948.27;;;17.69;37.31
66396;BME280;53207;51.378;-1.342;2023-03-13T04:05:10;97938.18;;;17.45;37.28
66396;BME280;53207;51.378;-1.342;2023-03-13T04:07:38;97927.17;;;17.72;37.24
66396;BME280;53207;51.378;-1.342;2023-03-13T04:10:06;97922.72;;;17.82;37.39
66396;BME280;53207;51.378;-1.342;2023-03-13T04:12:33;97921.39;;;17.86;37.34
66396;BME280;53207;51.378;-1.342;2023-03-13T04:15:01;97919.16;;;17.84;37.38
66396;BME280;53207;51.378;-1.342;2023-03-13T04:17:28;97905.56;;;17.88;37.25
66396;BME280;53207;51.378;-1.342;2023-03-13T04:19:55;97904.55;;;17.63;37.29
66396;BME280;53207;51.378;-1.342;2023-03-13T04:22:22;97898.14;;;17.59;37.33
66396;BME280;53207;51.378;-1.342;2023-03-13T04:24:50;97888.27;;;17.60;37.30
66396;BME280;53207;51.378;-1.342;2023-03-13T04:27:17;97888.33;;;17.87;37.23
66396;BME280;53207;51.378;-1.342;2023-03-13T04:29:44;97887.21;;;17.72;37.45
66396;BME280;53207;51.378;-1.342;2023-03-13T04:32:12;97892.13;;;17.76;37.39
66396;BME280;53207;51.378;-1.342;2023-03-13T04:34:39;97890.67;;;17.34;37.33
66396;BME280;53207;51.378;-1.342;2023-03-13T04:37:06;97894.02;;;17.79;37.30
66396;BME280;53207;51.378;-1.342;2023-03-13T04:39:34;97892.49;;;17.81;37.29
66396;BME280;53207;51.378;-1.342;2023-03-13T04:42:01;97907.23;;;17.82;37.26
66396;BME280;53207;51.378;-1.342;2023-03-13T04:44:28;97901.86;;;17.74;37.36
66396;BME280;53207;51.378;-1.342;2023-03-13T04:46:56;97892.42;;;17.82;37.26
66396;BME280;53207;51.378;-1.342;2023-03-13T04:49:23;97904.41;;;17.33;37.27
66396;BME280;53207;51.378;-1.342;2023-03-13T04:51:50;97904.33;;;17.77;37.33
66396;BME280;53207;51.378;-1.342;2023-03-13T04:54:18;97888.70;;;17.86;37.21
66396;BME280;53207;51.378;-1.342;2023-03-13T04:56:45;97884.19;;;17.75;37.34
66396;BME280;53207;51.378;-1.342;2023-03-13T04:59:13;97881.61;;;17.52;37.35
66396;BME280;53207;51.378;-1.342;2023-03-13T05:01:41;97877.30;;;17.77;37.27
66396;BME280;53207;51.378;-1.342;2023-03-13T05:04:09;97881.48;;;17.79;37.24
66396;BME280;53207;51.378;-1.342;2023-03-13T05:06:37;97859.68;;;17.21;37.39
66396;BME280;53207;51.378;-1.342;2023-03-13T05:09:04;97882.84;;;17.79;37.24
66396;BME280;53207;51.378;-1.342;2023-03-13T05:11:32;97883.76;;;17.53;37.29
66396;BME280;53207;51.378;-1.342;2023-03-13T05:14:00;97879.99;;;17.52;37.26
66396;BME280;53207;51.378;-1.342;2023-03-13T05:16:27;97881.87;;;17.69;37.32
66396;BME280;53207;51.378;-1.342;2023-03-13T05:18:55;97870.72;;;17.57;37.18
66396;BME280;53207;51.378;-1.342;2023-03-13T05:21:22;97872.30;;;17.69;37.30
66396;BME280;53207;51.378;-1.342;2023-03-13T05:23:49;97871.56;;;17.57;37.15
66396;BME280;53207;51.378;-1.342;2023-03-13T05:26:16;97877.44;;;17.50;37.22
66396;BME280;53207;51.378;-1.342;2023-03-13T05:28:44;97870.85;;;17.59;37.46
66396;BME280;53207;51.378;-1.342;2023-03-13T05:31:11;97861.29;;;17.72;37.26
66396;BME280;53207;51.378;-1.342;2023-03-13T05:33:38;97863.49;;;17.69;37.26
66396;BME280;53207;51.378;-1.342;2023-03-13T05:36:07;97860.61;;;17.73;37.22
66396;BME280;53207;51.378;-1.342;2023-03-13T05:38:34;97859.61;;;17.42;37.27
66396;BME280;53207;51.378;-1.342;2023-03-13T05:41:01;97859.50;;;17.70;37.20
66396;BME280;53207;51.378;-1.342;2023-03-13T05:43:29;97864.62;;;17.47;37.19
66396;BME280;53207;51.378;-1.342;2023-03-13T05:45:56;97871.36;;;17.61;37.30
66396;BME280;53207;51.378;-1.342;2023-03-13T05:48:23;97870.38;;;17.67;37.19
66396;BME280;53207;51.378;-1.342;2023-03-13T05:50:51;97865.58;;;17.68;37.20
66396;BME280;53207;51.378;-1.342;2023-03-13T05:53:18;97867.68;;;17.75;37.09
66396;BME280;53207;51.378;-1.342;2023-03-13T05:55:45;97853.49;;;17.67;37.17
66396;BME280;53207;51.378;-1.342;2023-03-13T05:58:13;97858.83;;;17.61;37.26
66396;BME280;53207;51.378;-1.342;2023-03-13T06:00:40;97858.30;;;17.46;37.15
66396;BME280;53207;51.378;-1.342;2023-03-13T06:03:07;97847.55;;;17.62;37.22
66396;BME280;53207;51.378;-1.342;2023-03-13T06:05:35;97829.45;;;17.50;37.36
66396;BME280;53207;51.378;-1.342;2023-03-13T06:08:02;97834.37;;;17.61;37.19
66396;BME280;53207;51.378;-1.342;2023-03-13T06:10:29;97833.32;;;17.61;37.25
66396;BME280;53207;51.378;-1.342;2023-03-13T06:12:57;97825.41;;;17.39;37.17
66396;BME280;53207;51.378;-1.342;2023-03-13T06:15:24;97840.10;;;17.61;37.21
66396;BME280;53207;51.378;-1.342;2023-03-13T06:17:51;97836.59;;;17.62;37.18
66396;BME280;53207;51.378;-1.342;2023-03-13T06:20:18;97832.01;;;17.93;37.04
66396;BME280;53207;51.378;-1.342;2023-03-13T06:22:46;97827.84;;;17.59;37.16
66396;BME280;53207;51.378;-1.342;2023-03-13T06:25:13;97830.67;;;17.54;37.22
66396;BME280;53207;51.378;-1.342;2023-03-13T06:27:41;97818.71;;;17.42;37.09
66396;BME280;53207;51.378;-1.342;2023-03-13T06:30:10;97810.58;;;17.56;37.17
66396;BME280;53207;51.378;-1.342;2023-03-13T06:32:37;97802.69;;;17.58;37.16
66396;BME280;53207;51.378;-1.342;2023-03-13T06:35:05;97794.80;;;17.53;37.17
66396;BME280;53207;51.378;-1.342;2023-03-13T06:37:33;97806.96;;;17.55;37.14
66396;BME280;53207;51.378;-1.342;2023-03-13T06:40:00;97798.09;;;17.82;36.75
66396;BME280;53207;51.378;-1.342;2023-03-13T06:42:27;97814.04;;;17.87;36.74
66396;BME280;53207;51.378;-1.342;2023-03-13T06:44:54;97784.64;;;17.98;36.75
66396;BME280;53207;51.378;-1.342;2023-03-13T06:47:22;97781.87;;;17.92;36.72
66396;BME280;53207;51.378;-1.342;2023-03-13T06:49:49;97784.79;;;18.30;36.66
66396;BME280;53207;51.378;-1.342;2023-03-13T06:52:16;97775.90;;;18.45;36.68
66396;BME280;53207;51.378;-1.342;2023-03-13T06:54:44;97771.83;;;18.40;36.58
66396;BME280;53207;51.378;-1.342;2023-03-13T06:57:11;97760.27;;;18.31;36.46
66396;BME280;53207;51.378;-1.342;2023-03-13T06:59:38;97758.89;;;18.48;36.36
66396;BME280;53207;51.378;-1.342;2023-03-13T07:02:07;97764.10;;;18.59;36.38
66396;BME280;53207;51.378;-1.342;2023-03-13T07:04:35;97753.47;;;19.13;36.42
66396;BME280;53207;51.378;-1.342;2023-03-13T07:07:02;97754.13;;;18.72;36.43
66396;BME280;53207;51.378;-1.342;2023-03-13T07:09:29;97757.94;;;19.05;36.43
66396;BME280;53207;51.378;-1.342;2023-03-13T07:11:57;97752.25;;;18.77;36.56
66396;BME280;53207;51.378;-1.342;2023-03-13T07:14:24;97749.84;;;18.81;36.55
66396;BME280;53207;51.378;-1.342;2023-03-13T07:16:51;97765.67;;;18.85;36.56
66396;BME280;53207;51.378;-1.342;2023-03-13T07:19:19;97764.52;;;18.65;36.61
66396;BME280;53207;51.378;-1.342;2023-03-13T07:21:46;97774.25;;;18.85;36.69
66396;BME280;53207;51.378;-1.342;2023-03-13T07:24:13;97763.76;;;18.87;36.69
66396;BME280;53207;51.378;-1.342;2023-03-13T07:26:40;97767.55;;;18.92;36.67
66396;BME280;53207;51.378;-1.342;2023-03-13T07:29:08;97774.49;;;18.93;36.72
66396;BME280;53207;51.378;-1.342;2023-03-13T07:31:35;97771.86;;;18.89;36.72
66396;BME280;53207;51.378;-1.342;2023-03-13T07:34:02;97768.84;;;18.92;36.69
66396;BME280;53207;51.378;-1.342;2023-03-13T07:36:30;97778.12;;;18.94;36.66
66396;BME280;53207;51.378;-1.342;2023-03-13T07:38:57;97770.44;;;18.91;36.63
66396;BME280;53207;51.378;-1.342;2023-03-13T07:41:24;97769.05;;;18.88;36.61
66396;BME280;53207;51.378;-1.342;2023-03-13T07:43:52;97774.09;;;18.81;36.67
66396;BME280;53207;51.378;-1.342;2023-03-13T07:46:19;97752.74;;;18.82;36.57
66396;BME280;53207;51.378;-1.342;2023-03-13T07:48:46;97748.92;;;19.05;36.56
66396;BME280;53207;51.378;-1.342;2023-03-13T07:51:15;97765.37;;;18.75;36.51
66396;BME280;53207;51.378;-1.342;2023-03-13T07:53:44;97748.44;;;18.74;36.52
66396;BME280;53207;51.378;-1.342;2023-03-13T07:56:13;97757.10;;;18.77;36.42
66396;BME280;53207;51.378;-1.342;2023-03-13T07:58:42;97748.88;;;18.73;36.64
66396;BME280;53207;51.378;-1.342;2023-03-13T08:01:11;97759.94;;;18.78;36.63
66396;BME280;53207;51.378;-1.342;2023-03-13T08:03:38;97771.91;;;18.82;36.72
66396;BME280;53207;51.378;-1.342;2023-03-13T08:06:08;97760.91;;;18.82;36.80
66396;BME280;53207;51.378;-1.342;2023-03-13T08:08:36;97762.32;;;18.85;36.79
66396;BME280;53207;51.378;-1.342;2023-03-13T08:11:06;97763.38;;;18.85;36.78
66396;BME280;53207;51.378;-1.342;2023-03-13T08:13:34;97763.22;;;18.90;36.69
66396;BME280;53207;51.378;-1.342;2023-03-13T08:16:02;97773.28;;;18.89;36.66
66396;BME280;53207;51.378;-1.342;2023-03-13T08:18:30;97763.82;;;18.88;36.66
66396;BME280;53207;51.378;-1.342;2023-03-13T08:21:00;97753.39;;;18.89;36.60
66396;BME280;53207;51.378;-1.342;2023-03-13T08:23:27;97752.56;;;18.93;36.50
66396;BME280;53207;51.378;-1.342;2023-03-13T08:25:54;97746.47;;;18.90;36.50
66396;BME280;53207;51.378;-1.342;2023-03-13T08:28:22;97757.34;;;18.91;36.45
66396;BME280;53207;51.378;-1.342;2023-03-13T08:30:49;97750.62;;;18.94;36.35
66396;BME280;53207;51.378;-1.342;2023-03-13T08:33:16;97758.99;;;18.89;36.40
66396;BME280;53207;51.378;-1.342;2023-03-13T08:35:44;97760.58;;;18.91;36.33
66396;BME280;53207;51.378;-1.342;2023-03-13T08:38:11;97755.34;;;18.82;36.44
66396;BME280;53207;51.378;-1.342;2023-03-13T08:40:38;97749.62;;;18.78;36.46
66396;BME280;53207;51.378;-1.342;2023-03-13T08:43:06;97754.58;;;18.77;36.49
66396;BME280;53207;51.378;-1.342;2023-03-13T08:45:33;97756.05;;;18.74;36.54
66396;BME280;53207;51.378;-1.342;2023-03-13T08:48:00;97765.96;;;18.74;36.54
66396;BME280;53207;51.378;-1.342;2023-03-13T08:50:27;97748.75;;;18.72;36.56
66396;BME280;53207;51.378;-1.342;2023-03-13T08:52:55;97757.62;;;18.70;36.62
66396;BME280;53207;51.378;-1.342;2023-03-13T08:55:22;97759.33;;;18.73;36.60
66396;BME280;53207;51.378;-1.342;2023-03-13T08:57:49;97743.67;;;18.67;36.66
66396;BME280;53207;51.378;-1.342;2023-03-13T09:00:17;97757.13;;;18.65;36.68
66396;BME280;53207;51.378;-1.342;2023-03-13T09:02:45;97748.38;;;18.66;36.68
66396;BME280;53207;51.378;-1.342;2023-03-13T09:05:12;97750.65;;;18.58;36.80
66396;BME280;53207;51.378;-1.342;2023-03-13T09:07:39;97738.94;;;18.42;36.99
66396;BME280;53207;51.378;-1.342;2023-03-13T09:10:07;97730.21;;;18.40;37.03
66396;BME280;53207;51.378;-1.342;2023-03-13T09:12:35;97753.56;;;18.49;36.94
66396;BME280;53207;51.378;-1.342;2023-03-13T09:15:02;97738.24;;;18.42;36.99
66396;BME280;53207;51.378;-1.342;2023-03-13T09:17:29;97748.15;;;18.37;37.04
66396;BME280;53207;51.378;-1.342;2023-03-13T09:19:56;97748.09;;;18.27;37.21
66396;BME280;53207;51.378;-1.342;2023-03-13T09:22:23;97749.24;;;18.36;37.08
66396;BME280;53207;51.378;-1.342;2023-03-13T09:24:51;97745.04;;;18.41;37.02
66396;BME280;53207;51.378;-1.342;2023-03-13T09:27:18;97744.03;;;18.34;37.08
66396;BME280;53207;51.378;-1.342;2023-03-13T09:29:45;97709.11;;;18.33;37.07
66396;BME280;53207;51.378;-1.342;2023-03-13T09:32:13;97741.11;;;18.37;37.04
66396;BME280;53207;51.378;-1.342;2023-03-13T09:34:40;97744.46;;;18.49;36.89
66396;BME280;53207;51.378;-1.342;2023-03-13T09:37:07;97741.71;;;18.38;37.01
66396;BME280;53207;51.378;-1.342;2023-03-13T09:39:35;97736.67;;;18.83;36.79
66396;BME280;53207;51.378;-1.342;2023-03-13T09:42:12;97737.88;;;18.27;37.12
66396;BME280;53207;51.378;-1.342;2023-03-13T09:44:45;97739.53;;;18.43;36.95
66396;BME280;53207;51.378;-1.342;2023-03-13T09:47:21;97749.32;;;18.55;37.12
66396;BME280;53207;51.378;-1.342;2023-03-13T09:49:54;97742.62;;;18.44;36.94
66396;BME280;53207;51.378;-1.342;2023-03-13T09:52:24;97752.72;;;18.48;36.88
66396;BME280;53207;51.378;-1.342;2023-03-13T09:54:56;97754.85;;;18.35;37.01
66396;BME280;53207;51.378;-1.342;2023-03-13T09:57:32;97760.75;;;18.48;36.86
66396;BME280;53207;51.378;-1.342;2023-03-13T10:00:03;97756.91;;;18.54;36.73
66396;BME280;53207;51.378;-1.342;2023-03-13T10:02:34;97742.26;;;18.57;36.70
66396;BME280;53207;51.378;-1.342;2023-03-13T10:05:09;97763.74;;;18.40;36.90
66396;BME280;53207;51.378;-1.342;2023-03-13T10:07:38;97753.99;;;18.59;36.65
66396;BME280;53207;51.378;-1.342;2023-03-13T10:10:12;97756.74;;;18.64;36.54
66396;BME280;53207;51.378;-1.342;2023-03-13T10:12:44;97754.07;;;18.36;36.90
66396;BME280;53207;51.378;-1.342;2023-03-13T10:15:35;97754.04;;;18.58;36.65
66396;BME280;53207;51.378;-1.342;2023-03-13T10:18:15;97765.97;;;18.58;36.65
66396;BME280;53207;51.378;-1.342;2023-03-13T10:20:45;97770.44;;;18.56;36.70
66396;BME280;53207;51.378;-1.342;2023-03-13T10:23:18;97743.81;;;18.49;36.74
66396;BME280;53207;51.378;-1.342;2023-03-13T10:25:46;97752.08;;;18.64;36.54
66396;BME280;53207;51.378;-1.342;2023-03-13T10:28:14;97757.75;;;18.50;36.72
66396;BME280;53207;51.378;-1.342;2023-03-13T10:30:46;97765.38;;;18.46;36.79
66396;BME280;53207;51.378;-1.342;2023-03-13T10:33:18;97761.36;;;18.45;36.76
66396;BME280;53207;51.378;-1.342;2023-03-13T10:35:59;97761.65;;;18.53;36.66
66396;BME280;53207;51.378;-1.342;2023-03-13T10:38:26;97763.43;;;18.23;37.03
66396;BME280;53207;51.378;-1.342;2023-03-13T10:40:57;97759.85;;;18.39;36.82
66396;BME280;53207;51.378;-1.342;2023-03-13T10:43:26;97770.57;;;18.58;36.61
66396;BME280;53207;51.378;-1.342;2023-03-13T10:45:54;97761.15;;;18.49;36.70
66396;BME280;53207;51.378;-1.342;2023-03-13T10:48:24;97751.12;;;18.49;36.70
66396;BME280;53207;51.378;-1.342;2023-03-13T10:50:53;97759.12;;;18.42;36.78
66396;BME280;53207;51.378;-1.342;2023-03-13T10:53:24;97753.24;;;18.26;37.01
66396;BME280;53207;51.378;-1.342;2023-03-13T10:55:53;97762.21;;;19.22;36.36
66396;BME280;53207;51.378;-1.342;2023-03-13T10:58:24;97764.16;;;18.45;36.75
66396;BME280;53207;51.378;-1.342;2023-03-13T11:01:09;97759.32;;;18.70;36.40
66396;BME280;53207;51.378;-1.342;2023-03-13T11:03:42;97751.85;;;18.41;36.79
66396;BME280;53207;51.378;-1.342;2023-03-13T11:06:23;97749.46;;;18.40;36.79
66396;BME280;53207;51.378;-1.342;2023-03-13T11:08:58;97750.47;;;18.71;36.41
66396;BME280;53207;51.378;-1.342;2023-03-13T11:11:25;97751.08;;;18.48;36.73
66396;BME280;53207;51.378;-1.342;2023-03-13T11:13:52;97752.84;;;18.56;36.61
66396;BME280;53207;51.378;-1.342;2023-03-13T11:16:22;97738.34;;;18.48;36.71
66396;BME280;53207;51.378;-1.342;2023-03-13T11:19:07;97741.72;;;18.63;36.52
66396;BME280;53207;51.378;-1.342;2023-03-13T11:21:46;97747.56;;;18.52;36.66
66396;BME280;53207;51.378;-1.342;2023-03-13T11:24:23;97746.76;;;18.56;36.61
66396;BME280;53207;51.378;-1.342;2023-03-13T11:27:01;97730.66;;;18.56;36.63
66396;BME280;53207;51.378;-1.342;2023-03-13T11:29:37;97735.41;;;18.68;36.44
66396;BME280;53207;51.378;-1.342;2023-03-13T11:32:18;97749.72;;;18.64;36.50
66396;BME280;53207;51.378;-1.342;2023-03-13T11:34:50;97734.88;;;18.56;36.56
66396;BME280;53207;51.378;-1.342;2023-03-13T11:37:22;97735.75;;;18.70;36.39
66396;BME280;53207;51.378;-1.342;2023-03-13T11:39:57;97729.83;;;18.59;36.50
66396;BME280;53207;51.378;-1.342;2023-03-13T11:42:48;97733.89;;;18.56;36.55
66396;BME280;53207;51.378;-1.342;2023-03-13T11:45:31;97731.76;;;18.63;36.46
66396;BME280;53207;51.378;-1.342;2023-03-13T11:48:11;97742.84;;;18.78;36.22
66396;BME280;53207;51.378;-1.342;2023-03-13T11:50:48;97743.44;;;18.52;36.55
66396;BME280;53207;51.378;-1.342;2023-03-13T11:53:28;97733.45;;;18.38;36.75
66396;BME280;53207;51.378;-1.342;2023-03-13T11:56:06;97721.13;;;18.62;36.46
66396;BME280;53207;51.378;-1.342;2023-03-13T11:58:44;97719.79;;;18.78;36.24
66396;BME280;53207;51.378;-1.342;2023-03-13T12:01:16;97716.26;;;18.60;36.48
66396;BME280;53207;51.378;-1.342;2023-03-13T12:03:52;97714.76;;;18.53;36.55
66396;BME280;53207;51.378;-1.342;2023-03-13T12:06:27;97715.59;;;18.41;36.43
66396;BME280;53207;51.378;-1.342;2023-03-13T12:08:59;97717.91;;;18.57;36.51
66396;BME280;53207;51.378;-1.342;2023-03-13T12:11:31;97717.41;;;18.51;36.55
66396;BME280;53207;51.378;-1.342;2023-03-13T12:14:01;97718.44;;;18.70;36.30
66396;BME280;53207;51.378;-1.342;2023-03-13T12:16:38;97705.07;;;18.60;36.38
66396;BME280;53207;51.378;-1.342;2023-03-13T12:19:10;97714.70;;;18.54;36.44
66396;BME280;53207;51.378;-1.342;2023-03-13T12:21:44;97713.04;;;18.60;36.38
66396;BME280;53207;51.378;-1.342;2023-03-13T12:24:20;97700.29;;;18.60;36.36
66396;BME280;53207;51.378;-1.342;2023-03-13T12:26:51;97705.15;;;18.65;36.31
66396;BME280;53207;51.378;-1.342;2023-03-13T12:29:29;97698.65;;;18.51;36.45
66396;BME280;53207;51.378;-1.342;2023-03-13T12:32:03;97695.50;;;18.66;36.26
66396;BME280;53207;51.378;-1.342;2023-03-13T12:34:38;97693.88;;;18.63;36.30
66396;BME280;53207;51.378;-1.342;2023-03-13T12:37:22;97693.91;;;18.66;36.26
66396;BME280;53207;51.378;-1.342;2023-03-13T12:39:57;97679.48;;;18.63;36.28
66396;BME280;53207;51.378;-1.342;2023-03-13T12:42:38;97679.67;;;18.71;36.17
66396;BME280;53207;51.378;-1.342;2023-03-13T12:45:09;97668.22;;;18.67;36.23
66396;BME280;53207;51.378;-1.342;2023-03-13T12:47:59;97675.61;;;18.74;36.15
66396;BME280;53207;51.378;-1.342;2023-03-13T12:50:42;97689.19;;;18.62;36.30
66396;BME280;53207;51.378;-1.342;2023-03-13T12:54:31;97682.14;;;18.71;36.23
66396;BME280;53207;51.378;-1.342;2023-03-13T12:57:12;97675.33;;;18.69;36.23
66396;BME280;53207;51.378;-1.342;2023-03-13T12:59:45;97675.33;;;18.63;36.30
66396;BME280;53207;51.378;-1.342;2023-03-13T13:02:16;97678.51;;;18.57;36.32
66396;BME280;53207;51.378;-1.342;2023-03-13T13:04:46;97667.75;;;18.76;36.07